Time;durP1;ratioP1;P1;durP2;ratioP2;P2;SDS_P1;SDS_P2;PMS_P1;PMS_P2;Temp;Humidity;BMP_temperature;BMP_pressure;BME280_temperature;BME280_humidity;BME280_pressure;Samples;Min_cycle;Max_cycle;Signal;HPM_P1;HPM_P2
2023/01/30 00:01:22;;;;;;;27.92;14.32;;;-0.20;99.90;;;;;;4919787;29;20059;-70
2023/01/30 00:03:48;;;;;;;23.63;13.02;;;-0.10;99.90;;;;;;4902827;29;20150;-70
2023/01/30 00:06:14;;;;;;;26.08;13.85;;;-0.10;99.90;;;;;;4902727;29;20477;-70
2023/01/30 00:08:40;;;;;;;26.40;13.45;;;-0.10;99.90;;;;;;4919052;29;20032;-70
2023/01/30 00:11:08;;;;;;;25.73;12.80;;;-0.10;99.90;;;;;;4919202;29;20111;-70
2023/01/30 00:13:33;;;;;;;27.42;12.55;;;-0.10;99.90;;;;;;4902476;29;20039;-70
2023/01/30 00:15:59;;;;;;;23.90;12.63;;;0.00;99.90;;;;;;4919400;29;20405;-70
2023/01/30 00:18:25;;;;;;;25.85;13.00;;;0.00;99.90;;;;;;4919004;29;20028;-70
2023/01/30 00:21:02;;;;;;;30.83;14.40;;;-0.10;99.90;;;;;;4902263;29;20083;-70
2023/01/30 00:23:30;;;;;;;28.77;13.50;;;-0.10;99.90;;;;;;4919324;29;20032;-70
2023/01/30 00:25:56;;;;;;;25.05;13.50;;;0.00;99.90;;;;;;4902173;29;20035;-70
2023/01/30 00:28:22;;;;;;;25.98;14.15;;;0.00;99.90;;;;;;4919257;29;20466;-70
2023/01/30 00:30:52;;;;;;;24.95;13.52;;;0.00;99.90;;;;;;4902309;29;20106;-70
2023/01/30 00:33:19;;;;;;;28.02;13.70;;;0.00;99.90;;;;;;4902237;29;20051;-70
2023/01/30 00:35:46;;;;;;;28.80;14.07;;;0.00;99.90;;;;;;4902755;29;20124;-70
2023/01/30 00:38:12;;;;;;;29.90;14.10;;;0.00;99.90;;;;;;4919056;29;20032;-70
2023/01/30 00:40:38;;;;;;;28.63;14.07;;;0.00;99.90;;;;;;4901989;29;20132;-70
2023/01/30 00:48:35;;;;;;;28.35;13.38;;;0.00;99.90;;;;;;4919093;29;20088;-70
2023/01/30 00:51:01;;;;;;;28.02;13.88;;;0.00;99.90;;;;;;4918516;29;20036;-70
2023/01/30 00:53:27;;;;;;;29.27;14.15;;;0.00;99.90;;;;;;4901440;29;20028;-70
2023/01/30 00:55:53;;;;;;;28.27;13.45;;;0.00;99.90;;;;;;4901746;29;20036;-70
2023/01/30 00:58:20;;;;;;;24.98;13.82;;;0.00;99.90;;;;;;4918406;29;20103;-70
2023/01/30 01:00:46;;;;;;;28.15;14.07;;;-0.10;99.90;;;;;;4901808;29;20066;-70
2023/01/30 01:03:12;;;;;;;25.92;14.07;;;-0.10;99.90;;;;;;4918369;29;20105;-71
2023/01/30 01:05:37;;;;;;;26.80;13.63;;;-0.10;99.90;;;;;;4901925;29;20043;-71
2023/01/30 01:08:03;;;;;;;26.08;13.10;;;-0.10;99.90;;;;;;4905359;29;20032;-71
2023/01/30 01:10:30;;;;;;;28.38;14.05;;;-0.10;99.90;;;;;;4922223;29;20044;-71
2023/01/30 01:12:55;;;;;;;27.80;14.40;;;-0.10;99.90;;;;;;4903786;29;20024;-71
2023/01/30 01:15:25;;;;;;;27.77;13.88;;;-0.20;99.90;;;;;;4920317;29;20107;-71
2023/01/30 01:17:51;;;;;;;25.48;12.48;;;0.00;99.90;;;;;;4901611;29;20462;-71
2023/01/30 01:20:18;;;;;;;30.77;14.23;;;-0.20;99.90;;;;;;4917663;29;20075;-70
2023/01/30 01:22:43;;;;;;;25.33;12.70;;;-0.20;99.90;;;;;;4918120;29;20028;-71
2023/01/30 01:25:10;;;;;;;24.80;12.25;;;-0.20;99.90;;;;;;4918102;29;20493;-70
2023/01/30 01:27:36;;;;;;;26.05;13.68;;;-0.10;99.90;;;;;;4918043;29;20064;-72
2023/01/30 01:30:03;;;;;;;26.42;13.50;;;-0.20;99.90;;;;;;4918048;29;20031;-70
2023/01/30 01:32:28;;;;;;;30.15;14.18;;;-0.30;99.90;;;;;;4900981;29;20489;-70
2023/01/30 01:34:54;;;;;;;27.27;14.07;;;-0.20;99.90;;;;;;4900932;29;20032;-70
2023/01/30 01:37:19;;;;;;;29.95;13.38;;;-0.20;99.90;;;;;;4900920;29;20036;-70
2023/01/30 01:42:34;;;;;;;27.50;13.65;;;-0.20;99.90;;;;;;4917907;29;20115;-70
2023/01/30 01:45:13;;;;;;;29.67;13.90;;;-0.10;99.90;;;;;;4900992;29;20044;-70
2023/01/30 01:47:46;;;;;;;25.27;12.75;;;-0.30;99.90;;;;;;4901237;29;20044;-70
2023/01/30 01:50:21;;;;;;;30.23;13.30;;;-0.40;99.90;;;;;;4917881;29;20028;-70
2023/01/30 01:52:50;;;;;;;29.50;13.85;;;-0.30;99.90;;;;;;4900743;29;20493;-70
2023/01/30 01:55:16;;;;;;;25.50;13.30;;;-0.30;99.90;;;;;;4900710;29;20038;-70
2023/01/30 01:57:55;;;;;;;29.70;13.15;;;-0.30;99.90;;;;;;4917762;29;20032;-70
2023/01/30 02:00:22;;;;;;;23.23;12.13;;;-0.30;99.90;;;;;;4918300;29;20532;-70
2023/01/30 02:02:58;;;;;;;26.88;13.32;;;-0.30;99.90;;;;;;4900409;29;20123;-71
2023/01/30 02:05:32;;;;;;;25.75;12.95;;;-0.30;99.90;;;;;;4917372;29;20434;-71
2023/01/30 02:08:07;;;;;;;27.20;13.00;;;-0.20;99.90;;;;;;4900907;29;20028;-70
2023/01/30 02:10:44;;;;;;;27.38;12.48;;;-0.30;99.90;;;;;;4917807;29;20474;-70
2023/01/30 02:13:10;;;;;;;29.45;13.43;;;-0.20;99.90;;;;;;4901166;29;20032;-70
2023/01/30 02:15:36;;;;;;;25.27;12.25;;;-0.20;99.90;;;;;;4917533;29;20394;-70
2023/01/30 02:18:02;;;;;;;29.00;12.88;;;-0.10;99.90;;;;;;4917631;29;20028;-70
2023/01/30 02:20:56;;;;;;;27.67;13.52;;;-0.10;99.90;;;;;;4917567;29;20024;-70
2023/01/30 02:23:37;;;;;;;25.05;12.40;;;-0.10;99.90;;;;;;4900628;29;20046;-70
2023/01/30 02:26:14;;;;;;;24.40;12.45;;;-0.10;99.90;;;;;;4917502;29;20047;-70
2023/01/30 02:28:49;;;;;;;25.80;13.00;;;-0.20;99.90;;;;;;4917280;29;20040;-70
2023/01/30 02:31:38;;;;;;;25.70;12.82;;;-0.10;99.90;;;;;;4917709;29;20363;-70
2023/01/30 02:34:34;;;;;;;23.55;13.10;;;0.00;99.90;;;;;;4913406;29;20060;-70
2023/01/30 02:37:37;;;;;;;24.50;11.75;;;0.00;99.90;;;;;;4904853;29;20036;-70
2023/01/30 02:40:17;;;;;;;28.35;12.50;;;0.00;99.90;;;;;;4904283;29;20032;-69
2023/01/30 02:42:52;;;;;;;24.08;12.18;;;0.00;99.90;;;;;;4904396;29;20497;-70
2023/01/30 02:45:34;;;;;;;24.85;12.00;;;0.00;99.90;;;;;;4921655;29;20107;-70
2023/01/30 02:48:04;;;;;;;22.58;11.85;;;0.00;99.90;;;;;;4904318;29;20084;-69
2023/01/30 02:50:39;;;;;;;23.02;11.98;;;0.00;99.90;;;;;;4920927;29;20051;-69
2023/01/30 02:53:06;;;;;;;22.25;11.30;;;0.00;99.90;;;;;;4921455;29;20032;-69
2023/01/30 02:55:32;;;;;;;22.73;11.65;;;0.00;99.90;;;;;;4920840;29;20039;-69
2023/01/30 02:57:58;;;;;;;22.55;11.80;;;0.00;99.90;;;;;;4920622;29;20478;-70
2023/01/30 03:01:03;;;;;;;24.02;11.35;;;0.00;99.90;;;;;;4920822;29;20032;-70
2023/01/30 03:03:28;;;;;;;23.00;11.35;;;0.00;99.90;;;;;;4920827;29;20051;-70
2023/01/30 03:06:17;;;;;;;21.52;10.90;;;0.00;99.90;;;;;;4920815;29;20036;-70
2023/01/30 03:09:04;;;;;;;23.08;11.40;;;0.10;99.90;;;;;;4921617;29;20509;-70
2023/01/30 03:11:45;;;;;;;20.85;10.82;;;0.00;99.90;;;;;;4904931;29;20036;-70
2023/01/30 03:14:26;;;;;;;23.20;11.40;;;0.10;99.90;;;;;;4905063;29;20032;-70
2023/01/30 03:16:56;;;;;;;23.50;11.20;;;0.10;99.90;;;;;;4905035;29;20036;-70
2023/01/30 03:19:22;;;;;;;19.35;10.57;;;0.10;99.90;;;;;;4921862;29;20068;-70
2023/01/30 03:21:47;;;;;;;21.05;11.50;;;0.10;99.90;;;;;;4921783;29;20410;-70
2023/01/30 03:24:13;;;;;;;21.75;11.25;;;0.20;99.90;;;;;;4905034;29;20100;-70
2023/01/30 03:26:48;;;;;;;25.02;11.27;;;0.10;99.90;;;;;;4921960;29;20089;-70
2023/01/30 03:29:14;;;;;;;22.50;11.88;;;0.10;99.90;;;;;;4904839;29;20039;-70
2023/01/30 03:31:40;;;;;;;20.48;11.27;;;0.10;99.90;;;;;;4926023;29;20028;-70
2023/01/30 03:34:05;;;;;;;21.52;11.77;;;0.20;99.90;;;;;;4925792;29;20032;-70
2023/01/30 03:36:31;;;;;;;23.33;10.40;;;0.30;99.90;;;;;;4925738;29;20039;-70
2023/01/30 03:38:57;;;;;;;22.17;11.85;;;0.40;99.90;;;;;;4927007;29;20394;-69
2023/01/30 03:41:23;;;;;;;25.33;11.88;;;0.40;99.90;;;;;;4925952;29;20481;-70
2023/01/30 03:43:48;;;;;;;24.30;11.95;;;0.40;99.90;;;;;;4925642;29;20521;-70
2023/01/30 03:46:14;;;;;;;23.52;12.07;;;0.40;99.90;;;;;;4922092;29;20060;-69
2023/01/30 03:48:40;;;;;;;24.23;12.93;;;0.30;99.90;;;;;;4921525;29;20107;-70
2023/01/30 03:51:05;;;;;;;23.52;11.52;;;0.20;99.90;;;;;;4923456;29;20111;-70
2023/01/30 03:53:31;;;;;;;23.02;11.05;;;0.20;99.90;;;;;;4923161;29;20087;-69
2023/01/30 03:55:56;;;;;;;26.17;12.13;;;0.20;99.90;;;;;;4922546;29;20083;-70
2023/01/30 03:58:22;;;;;;;23.60;12.25;;;0.20;99.90;;;;;;4922878;29;20020;-70
2023/01/30 04:00:48;;;;;;;25.63;11.73;;;0.20;99.90;;;;;;4921682;29;20095;-70
2023/01/30 04:03:14;;;;;;;18.60;11.15;;;0.20;99.90;;;;;;4921627;29;20537;-70
2023/01/30 04:05:42;;;;;;;21.88;11.75;;;0.20;99.90;;;;;;4903727;29;20063;-70
2023/01/30 04:08:09;;;;;;;23.25;11.73;;;0.30;99.90;;;;;;4902644;29;20040;-70
2023/01/30 04:10:34;;;;;;;22.67;11.60;;;0.20;99.90;;;;;;4902544;29;20036;-70
2023/01/30 04:13:00;;;;;;;22.25;11.43;;;0.20;99.90;;;;;;4919764;29;20157;-70
2023/01/30 04:15:26;;;;;;;22.20;11.63;;;0.20;99.90;;;;;;4919749;29;20471;-70
2023/01/30 04:17:51;;;;;;;22.95;12.07;;;0.20;99.90;;;;;;4919523;29;20029;-70
2023/01/30 04:20:17;;;;;;;19.42;10.70;;;0.20;99.90;;;;;;4902467;29;20533;-70
2023/01/30 04:22:44;;;;;;;20.88;10.55;;;0.10;99.90;;;;;;4920150;29;20028;-70
2023/01/30 04:25:09;;;;;;;20.35;11.07;;;0.10;99.90;;;;;;4902593;29;20117;-70
2023/01/30 04:27:35;;;;;;;23.95;12.23;;;0.10;99.90;;;;;;4902720;29;20052;-70
2023/01/30 04:30:01;;;;;;;22.05;11.63;;;0.10;99.90;;;;;;4920847;29;20514;-70
2023/01/30 04:32:26;;;;;;;26.13;12.85;;;0.10;99.90;;;;;;4904205;29;20034;-70
2023/01/30 04:34:52;;;;;;;24.15;11.73;;;0.10;99.90;;;;;;4904044;29;20032;-70
2023/01/30 04:37:17;;;;;;;24.02;12.20;;;0.20;99.90;;;;;;4921486;29;20028;-70
2023/01/30 04:39:43;;;;;;;21.70;12.02;;;0.20;99.90;;;;;;4920297;29;20024;-70
2023/01/30 04:42:09;;;;;;;27.17;13.25;;;0.10;99.90;;;;;;4903883;29;20031;-70
2023/01/30 04:44:34;;;;;;;24.88;12.85;;;0.20;99.90;;;;;;4903742;29;20462;-69
2023/01/30 04:47:00;;;;;;;26.80;12.68;;;0.30;99.90;;;;;;4921212;29;20036;-69
2023/01/30 04:49:26;;;;;;;28.58;13.57;;;0.20;99.90;;;;;;4919646;29;20458;-69
2023/01/30 04:51:51;;;;;;;25.13;12.07;;;0.20;99.90;;;;;;4919507;29;20031;-69
2023/01/30 04:54:17;;;;;;;26.42;12.45;;;0.20;99.90;;;;;;4901457;29;20490;-69
2023/01/30 04:56:43;;;;;;;21.17;11.98;;;0.10;99.90;;;;;;4902412;29;20031;-73
2023/01/30 04:59:08;;;;;;;25.48;12.98;;;0.10;99.90;;;;;;4902529;29;20036;-70
2023/01/30 05:01:37;;;;;;;26.88;12.38;;;0.10;99.90;;;;;;4901941;29;20028;-70
2023/01/30 05:04:03;;;;;;;26.38;13.55;;;0.10;99.90;;;;;;4901443;29;20437;-69
2023/01/30 05:06:30;;;;;;;26.08;12.30;;;0.20;99.90;;;;;;4918855;29;20046;-70
2023/01/30 05:08:57;;;;;;;24.80;12.98;;;0.20;99.90;;;;;;4918642;29;20060;-70
2023/01/30 05:11:24;;;;;;;26.55;14.02;;;0.20;99.90;;;;;;4918147;29;20031;-70
2023/01/30 05:13:50;;;;;;;28.02;13.50;;;0.20;99.90;;;;;;4901479;29;20446;-68
2023/01/30 05:16:17;;;;;;;25.55;13.05;;;0.20;99.90;;;;;;4918020;29;20032;-71
2023/01/30 05:18:43;;;;;;;27.30;13.95;;;0.20;99.90;;;;;;4901038;29;20501;-70
2023/01/30 05:21:30;;;;;;;25.65;13.75;;;0.40;99.90;;;;;;4918407;29;20024;-72
2023/01/30 05:23:56;;;;;;;28.48;13.68;;;0.40;99.90;;;;;;4918121;29;20091;-71
2023/01/30 05:26:22;;;;;;;25.17;12.32;;;0.40;99.90;;;;;;4918143;29;20498;-72
2023/01/30 05:28:53;;;;;;;23.92;13.43;;;0.40;99.90;;;;;;4918347;29;20036;-72
2023/01/30 05:31:19;;;;;;;27.33;13.35;;;0.40;99.90;;;;;;4902574;29;20032;-72
2023/01/30 05:33:47;;;;;;;28.55;13.73;;;0.50;99.90;;;;;;4904596;29;20039;-72
2023/01/30 05:36:15;;;;;;;28.00;13.63;;;0.50;99.90;;;;;;4904051;29;20036;-72
2023/01/30 05:38:44;;;;;;;24.98;12.40;;;0.50;99.90;;;;;;4903755;29;20043;-70
2023/01/30 05:41:12;;;;;;;27.88;14.57;;;0.50;99.90;;;;;;4920006;29;20079;-72
2023/01/30 05:43:37;;;;;;;24.88;12.52;;;0.50;99.90;;;;;;4919075;29;20032;-73
2023/01/30 05:46:04;;;;;;;24.30;12.65;;;0.50;99.90;;;;;;4918887;29;20382;-73
2023/01/30 05:48:31;;;;;;;26.48;13.20;;;0.50;99.90;;;;;;4918390;29;20068;-73
2023/01/30 05:50:58;;;;;;;29.20;13.90;;;0.60;99.90;;;;;;4918650;29;20103;-72
2023/01/30 05:53:27;;;;;;;20.02;11.35;;;0.60;99.90;;;;;;4900706;29;20031;-72
2023/01/30 05:55:56;;;;;;;;;;;0.60;99.90;;;;;;4917644;29;20024;-72
2023/01/30 05:58:22;;;;;;;24.63;12.02;;;0.60;99.90;;;;;;4917788;29;19907;-71
2023/01/30 06:00:47;;;;;;;22.58;10.73;;;0.60;99.90;;;;;;4917766;29;20028;-71
2023/01/30 06:03:13;;;;;;;22.30;11.65;;;0.60;99.90;;;;;;4915074;29;20104;-72
2023/01/30 06:05:39;;;;;;;21.27;11.15;;;0.60;99.90;;;;;;4899764;29;20378;-71
2023/01/30 06:08:04;;;;;;;21.17;10.45;;;0.60;99.90;;;;;;4916793;29;20442;-71
2023/01/30 06:10:30;;;;;;;19.92;10.82;;;0.60;99.90;;;;;;4917539;29;20028;-71
2023/01/30 06:12:55;;;;;;;23.70;12.10;;;0.60;99.90;;;;;;4900228;29;20032;-71
2023/01/30 06:15:21;;;;;;;24.33;12.35;;;0.50;99.90;;;;;;4917505;29;20125;-71
2023/01/30 06:17:47;;;;;;;24.60;11.95;;;0.50;99.90;;;;;;4900655;29;20024;-71
2023/01/30 06:20:13;;;;;;;24.58;12.38;;;0.50;99.90;;;;;;4900557;29;20051;-70
2023/01/30 06:22:38;;;;;;;21.67;11.27;;;0.50;99.90;;;;;;4917654;29;20176;-70
2023/01/30 06:25:04;;;;;;;25.95;12.45;;;0.60;99.90;;;;;;4917457;29;20091;-70
2023/01/30 06:27:30;;;;;;;23.98;11.85;;;0.60;99.90;;;;;;4900573;29;20063;-70
2023/01/30 06:29:56;;;;;;;25.23;13.35;;;0.60;99.90;;;;;;4917667;29;20466;-70
2023/01/30 06:32:21;;;;;;;23.67;12.32;;;0.60;99.90;;;;;;4917593;29;20403;-70
2023/01/30 06:34:47;;;;;;;23.92;12.55;;;0.60;99.90;;;;;;4917438;29;20466;-70
2023/01/30 06:37:13;;;;;;;23.88;13.05;;;0.60;99.90;;;;;;4917085;29;20478;-70
2023/01/30 06:39:38;;;;;;;25.00;12.63;;;0.60;99.90;;;;;;4900683;29;20054;-71
2023/01/30 06:42:04;;;;;;;23.50;12.00;;;0.60;99.90;;;;;;4917252;29;20029;-70
2023/01/30 06:44:30;;;;;;;21.58;11.13;;;0.60;99.90;;;;;;4900111;29;20032;-70
2023/01/30 06:46:55;;;;;;;24.15;11.32;;;0.70;99.90;;;;;;4917439;29;20486;-70
2023/01/30 06:49:21;;;;;;;25.65;11.80;;;0.70;99.90;;;;;;4900501;29;20378;-70
2023/01/30 06:51:47;;;;;;;22.98;11.55;;;0.80;99.90;;;;;;4900262;29;20363;-69
2023/01/30 06:54:12;;;;;;;20.67;10.88;;;0.80;99.90;;;;;;4917163;29;20031;-70
2023/01/30 06:56:38;;;;;;;22.23;10.70;;;0.80;99.90;;;;;;4917156;29;20048;-70
2023/01/30 06:59:04;;;;;;;21.27;9.90;;;0.90;99.90;;;;;;4900095;29;20028;-70
2023/01/30 07:01:29;;;;;;;23.08;11.00;;;0.90;99.90;;;;;;4900082;29;20119;-70
2023/01/30 07:03:55;;;;;;;23.48;10.63;;;0.90;99.90;;;;;;4899758;29;20135;-70
2023/01/30 07:06:20;;;;;;;18.65;9.65;;;1.00;99.90;;;;;;4900016;29;20028;-70
2023/01/30 07:08:46;;;;;;;16.83;9.00;;;1.00;99.90;;;;;;4917106;29;20036;-70
2023/01/30 07:11:12;;;;;;;18.42;8.98;;;1.00;99.90;;;;;;4916944;29;20024;-70
2023/01/30 07:13:37;;;;;;;19.20;10.18;;;1.10;99.90;;;;;;4900243;29;20048;-70
2023/01/30 07:16:03;;;;;;;20.30;9.63;;;1.10;99.90;;;;;;4900004;29;20040;-70
2023/01/30 07:18:29;;;;;;;18.92;9.25;;;1.10;99.90;;;;;;4902300;29;20055;-70
2023/01/30 07:20:54;;;;;;;18.13;9.02;;;1.10;99.90;;;;;;4920401;29;20067;-70
2023/01/30 07:23:20;;;;;;;17.02;9.05;;;1.10;99.90;;;;;;4920244;29;20032;-70
2023/01/30 07:25:46;;;;;;;16.58;9.00;;;1.20;99.90;;;;;;4903195;29;20095;-70
2023/01/30 07:28:11;;;;;;;20.15;9.90;;;1.20;99.90;;;;;;4920211;29;20032;-70
2023/01/30 07:30:37;;;;;;;19.50;10.00;;;1.20;99.90;;;;;;4902908;29;20064;-70
2023/01/30 07:33:05;;;;;;;16.58;8.88;;;1.20;99.90;;;;;;4903094;29;20051;-71
2023/01/30 07:35:32;;;;;;;18.08;9.30;;;1.20;99.90;;;;;;4920063;29;20036;-70
2023/01/30 07:37:58;;;;;;;16.52;9.32;;;1.30;99.90;;;;;;4919729;29;20434;-70
2023/01/30 07:40:24;;;;;;;20.73;10.75;;;1.30;99.90;;;;;;4902952;29;20024;-70
2023/01/30 07:42:56;;;;;;;18.50;9.70;;;1.30;99.90;;;;;;4919626;29;20389;-70
2023/01/30 07:45:22;;;;;;;19.88;9.60;;;1.40;99.90;;;;;;4902945;29;20032;-70
2023/01/30 07:47:48;;;;;;;21.45;10.02;;;1.40;99.90;;;;;;4919817;29;20035;-70
2023/01/30 07:50:13;;;;;;;20.48;9.70;;;1.50;99.90;;;;;;4920142;29;20060;-70
2023/01/30 07:52:39;;;;;;;21.60;9.70;;;1.50;99.90;;;;;;4919886;29;20111;-70
2023/01/30 07:55:05;;;;;;;18.65;9.75;;;1.60;99.90;;;;;;4919366;29;20032;-70
2023/01/30 07:57:31;;;;;;;20.25;10.25;;;1.60;99.90;;;;;;4919840;29;20057;-70
2023/01/30 07:59:56;;;;;;;20.40;9.70;;;1.60;99.90;;;;;;4920051;29;20423;-70
2023/01/30 08:02:22;;;;;;;18.25;10.02;;;1.60;99.90;;;;;;4919603;29;20393;-70
2023/01/30 08:04:47;;;;;;;17.95;9.50;;;1.60;99.90;;;;;;4902260;29;20467;-70
2023/01/30 08:07:13;;;;;;;20.67;10.40;;;1.60;99.90;;;;;;4919752;29;20028;-70
2023/01/30 08:09:39;;;;;;;19.85;10.23;;;1.60;99.90;;;;;;4902688;29;20024;-69
2023/01/30 08:12:04;;;;;;;22.02;10.60;;;1.70;99.90;;;;;;4919435;29;20024;-69
2023/01/30 08:14:30;;;;;;;20.13;8.68;;;1.60;99.90;;;;;;4902345;29;20036;-69
2023/01/30 08:16:56;;;;;;;18.50;10.20;;;1.70;99.90;;;;;;4919393;29;20028;-69
2023/01/30 08:19:22;;;;;;;21.65;9.88;;;1.70;99.90;;;;;;4920088;29;20020;-69
2023/01/30 08:21:48;;;;;;;20.23;10.05;;;1.70;99.90;;;;;;4902515;29;20028;-69
2023/01/30 08:24:13;;;;;;;19.45;10.10;;;1.80;99.90;;;;;;4902642;29;20402;-69
2023/01/30 08:26:39;;;;;;;19.67;10.13;;;2.00;99.90;;;;;;4919522;29;20025;-69
2023/01/30 08:29:05;;;;;;;19.40;9.80;;;2.00;99.90;;;;;;4919583;29;20065;-69
2023/01/30 08:31:31;;;;;;;19.23;9.82;;;2.30;99.90;;;;;;4919079;29;20408;-69
2023/01/30 08:33:56;;;;;;;20.27;10.48;;;2.40;99.90;;;;;;4903086;29;20066;-69
2023/01/30 08:36:22;;;;;;;22.52;11.10;;;2.60;99.90;;;;;;4919414;29;20382;-69
2023/01/30 08:38:47;;;;;;;16.67;9.35;;;2.80;99.90;;;;;;4920146;29;20449;-69
2023/01/30 08:41:13;;;;;;;17.85;8.70;;;2.60;99.90;;;;;;4903044;29;20059;-69
2023/01/30 08:43:39;;;;;;;17.67;9.57;;;2.50;99.90;;;;;;4902545;29;20028;-69
2023/01/30 08:46:05;;;;;;;18.05;8.18;;;2.50;99.90;;;;;;4920141;29;20036;-69
2023/01/30 08:48:31;;;;;;;17.45;8.85;;;2.20;99.90;;;;;;4903148;29;20040;-69
2023/01/30 08:50:57;;;;;;;17.13;8.57;;;2.10;99.90;;;;;;4919938;29;20051;-69
2023/01/30 08:53:23;;;;;;;16.00;7.95;;;2.10;99.90;;;;;;4902952;29;20470;-69
2023/01/30 08:55:50;;;;;;;15.95;9.23;;;2.20;99.90;;;;;;4919343;29;20033;-69
2023/01/30 08:58:16;;;;;;;17.08;8.63;;;2.40;99.90;;;;;;4902894;29;20478;-70
2023/01/30 09:00:43;;;;;;;14.18;7.57;;;2.60;99.90;;;;;;4902832;29;20075;-70
2023/01/30 09:03:10;;;;;;;15.48;8.48;;;2.80;99.90;;;;;;4919800;29;20159;-70
2023/01/30 09:05:36;;;;;;;16.38;8.50;;;2.70;99.90;;;;;;4901927;29;20398;-70
2023/01/30 09:08:02;;;;;;;14.57;8.35;;;2.60;99.90;;;;;;4902011;29;20028;-70
2023/01/30 09:10:29;;;;;;;16.15;8.15;;;2.50;99.90;;;;;;4918125;29;20032;-70
2023/01/30 09:12:54;;;;;;;14.95;8.43;;;2.60;99.90;;;;;;4918375;29;20115;-69
2023/01/30 09:15:20;;;;;;;17.50;9.45;;;2.70;99.90;;;;;;4918338;29;20119;-69
2023/01/30 09:17:46;;;;;;;16.55;8.23;;;2.70;99.90;;;;;;4918034;29;20087;-68
2023/01/30 09:20:12;;;;;;;14.98;8.68;;;2.80;99.90;;;;;;4918046;29;20105;-70
2023/01/30 09:22:38;;;;;;;16.65;8.52;;;2.90;99.90;;;;;;4918194;29;20047;-71
2023/01/30 09:25:05;;;;;;;16.15;8.57;;;2.90;99.90;;;;;;4917817;29;20422;-70
2023/01/30 09:27:30;;;;;;;15.85;8.43;;;2.80;99.90;;;;;;4917903;29;20091;-70
2023/01/30 09:29:56;;;;;;;15.77;7.15;;;2.80;99.90;;;;;;4918581;29;20028;-70
2023/01/30 09:32:22;;;;;;;14.00;7.20;;;2.60;99.90;;;;;;4918266;29;20466;-71
2023/01/30 09:34:47;;;;;;;16.60;7.95;;;2.60;99.90;;;;;;4917887;29;20489;-70
2023/01/30 09:37:13;;;;;;;11.98;7.28;;;2.60;99.90;;;;;;4901079;29;20050;-68
2023/01/30 09:39:39;;;;;;;14.25;7.05;;;2.60;99.90;;;;;;4917805;29;20080;-69
2023/01/30 09:42:04;;;;;;;12.80;7.50;;;2.60;99.90;;;;;;4901307;29;20036;-69
2023/01/30 09:44:45;;;;;;;13.00;6.88;;;2.60;99.90;;;;;;4919861;29;20048;-70
2023/01/30 09:47:13;;;;;;;12.48;6.57;;;2.70;99.90;;;;;;4905976;29;20102;-69
2023/01/30 09:49:38;;;;;;;13.73;6.78;;;2.80;99.90;;;;;;4905151;29;20025;-69
2023/01/30 09:52:32;;;;;;;13.38;5.97;;;3.00;99.90;;;;;;4921361;29;20043;-69
2023/01/30 09:55:17;;;;;;;11.55;6.03;;;3.40;99.90;;;;;;4920583;29;20038;-71
2023/01/30 09:57:45;;;;;;;11.35;5.90;;;3.70;98.80;;;;;;4918699;29;20032;-68
2023/01/30 10:00:23;;;;;;;8.52;5.03;;;3.90;98.70;;;;;;4900705;29;20028;-68
2023/01/30 10:03:07;;;;;;;11.77;5.03;;;4.30;98.10;;;;;;4901243;29;20103;-68
2023/01/30 10:05:44;;;;;;;12.88;4.60;;;5.00;95.20;;;;;;4901795;29;20058;-67
2023/01/30 10:08:16;;;;;;;6.50;4.13;;;5.50;94.80;;;;;;4918618;29;20047;-69
2023/01/30 10:10:52;;;;;;;5.90;4.32;;;5.70;92.50;;;;;;4917925;29;20024;-67
2023/01/30 10:13:45;;;;;;;7.15;4.55;;;6.10;92.20;;;;;;4917912;29;20035;-67
2023/01/30 10:16:30;;;;;;;7.53;4.88;;;5.80;90.90;;;;;;4900748;29;20173;-67
2023/01/30 10:19:20;;;;;;;11.25;4.50;;;4.90;92.40;;;;;;4900569;29;20064;-67
2023/01/30 10:21:53;;;;;;;8.43;4.88;;;4.40;94.60;;;;;;4917648;29;20065;-66
2023/01/30 10:24:33;;;;;;;7.88;4.78;;;3.80;95.50;;;;;;4900423;29;20056;-66
2023/01/30 10:26:59;;;;;;;9.57;4.80;;;3.50;97.00;;;;;;4917435;29;20031;-67
2023/01/30 10:29:36;;;;;;;8.20;4.78;;;3.40;97.80;;;;;;4900508;29;20024;-67
2023/01/30 10:32:25;;;;;;;9.57;3.75;;;3.30;99.20;;;;;;4917240;29;20489;-67
2023/01/30 10:34:54;;;;;;;7.13;4.47;;;3.20;99.80;;;;;;4900377;29;20036;-67
2023/01/30 10:37:32;;;;;;;12.07;4.28;;;3.20;99.90;;;;;;4900730;29;20044;-67
2023/01/30 10:40:19;;;;;;;6.38;3.67;;;3.20;99.90;;;;;;4900466;29;20032;-67
2023/01/30 10:43:18;;;;;;;11.27;3.78;;;3.20;99.90;;;;;;4917765;29;20040;-67
2023/01/30 10:45:56;;;;;;;6.30;3.47;;;3.30;99.90;;;;;;4917521;29;20032;-67
2023/01/30 10:48:30;;;;;;;5.45;3.03;;;3.30;99.90;;;;;;4917051;29;20046;-67
2023/01/30 10:51:02;;;;;;;6.32;3.40;;;3.30;99.90;;;;;;4917390;29;20032;-67
2023/01/30 10:53:32;;;;;;;7.95;3.47;;;3.40;99.90;;;;;;4902778;29;20426;-67
2023/01/30 10:56:12;;;;;;;7.25;3.70;;;3.40;99.90;;;;;;4903863;29;20044;-67
2023/01/30 10:58:49;;;;;;;8.88;3.55;;;3.50;99.60;;;;;;4920625;29;20036;-67
2023/01/30 11:01:24;;;;;;;7.65;3.35;;;3.70;99.00;;;;;;4920873;29;20029;-68
2023/01/30 11:04:00;;;;;;;8.23;3.15;;;3.70;98.70;;;;;;4920715;29;20071;-68
2023/01/30 11:06:26;;;;;;;5.18;3.00;;;3.70;98.80;;;;;;4920774;29;20127;-68
2023/01/30 11:08:54;;;;;;;6.72;3.10;;;3.80;98.20;;;;;;4903772;29;20473;-68
2023/01/30 11:11:41;;;;;;;6.57;3.17;;;3.80;98.20;;;;;;4920404;29;20032;-68
2023/01/30 11:14:10;;;;;;;7.97;3.22;;;3.80;97.80;;;;;;4904471;29;20067;-68
2023/01/30 11:16:51;;;;;;;6.28;2.90;;;3.90;97.10;;;;;;4903875;29;20080;-68
2023/01/30 11:19:20;;;;;;;5.82;3.13;;;4.00;96.40;;;;;;4920304;29;20053;-70
2023/01/30 11:21:54;;;;;;;4.35;2.92;;;4.70;95.70;;;;;;4903526;29;20028;-68
2023/01/30 11:24:29;;;;;;;6.95;3.20;;;5.50;91.40;;;;;;4920295;29;20028;-68
2023/01/30 11:27:08;;;;;;;6.43;3.53;;;5.90;87.80;;;;;;4903433;29;20032;-69
2023/01/30 11:29:36;;;;;;;9.10;3.65;;;6.30;85.00;;;;;;4920547;29;20032;-68
2023/01/30 11:32:05;;;;;;;9.27;3.13;;;6.00;83.50;;;;;;4903386;29;20537;-68
2023/01/30 11:34:31;;;;;;;;;;;6.30;82.50;;;;;;4920617;29;20040;-69
2023/01/30 11:37:22;;;;;;;5.45;3.05;;;6.50;81.40;;;;;;4920232;29;19914;-68
2023/01/30 11:39:50;;;;;;;5.95;3.10;;;7.10;78.40;;;;;;4903181;29;20028;-68
2023/01/30 11:42:19;;;;;;;7.78;3.00;;;6.20;79.10;;;;;;4902953;29;20071;-68
2023/01/30 11:44:45;;;;;;;4.70;3.08;;;6.50;79.00;;;;;;4903535;29;20135;-68
2023/01/30 11:47:24;;;;;;;7.10;3.03;;;7.00;76.30;;;;;;4920211;29;20097;-68
2023/01/30 11:49:55;;;;;;;5.05;2.80;;;7.10;76.20;;;;;;4903627;29;20036;-68
2023/01/30 11:52:41;;;;;;;5.28;2.58;;;7.60;73.00;;;;;;4903771;29;20075;-67
2023/01/30 11:55:13;;;;;;;8.68;3.20;;;7.70;72.50;;;;;;4903114;29;20032;-67
2023/01/30 11:57:42;;;;;;;6.15;3.40;;;7.70;71.50;;;;;;4903252;29;20039;-73
2023/01/30 12:00:22;;;;;;;5.10;3.13;;;8.30;71.50;;;;;;4919840;29;20101;-68
2023/01/30 12:02:50;;;;;;;4.95;2.95;;;8.50;67.10;;;;;;4920200;29;20028;-68
2023/01/30 12:05:33;;;;;;;7.57;2.70;;;8.10;66.80;;;;;;4919641;29;20474;-68
2023/01/30 12:08:22;;;;;;;4.88;3.20;;;8.00;67.00;;;;;;4902872;29;20080;-68
2023/01/30 12:11:00;;;;;;;7.20;2.42;;;7.80;67.60;;;;;;4903296;29;20029;-68
2023/01/30 12:13:44;;;;;;;3.80;2.03;;;7.10;70.80;;;;;;4919818;29;20375;-68
2023/01/30 12:16:47;;;;;;;4.18;2.58;;;6.60;72.70;;;;;;4919643;29;20634;-68
2023/01/30 12:19:47;;;;;;;7.15;2.60;;;6.10;74.10;;;;;;4919441;29;20056;-68
2023/01/30 12:22:25;;;;;;;4.97;2.42;;;5.60;77.90;;;;;;4919234;29;20033;-68
2023/01/30 12:24:57;;;;;;;6.15;2.80;;;5.40;80.70;;;;;;4919597;29;20040;-68
2023/01/30 12:27:58;;;;;;;3.42;2.58;;;5.30;83.60;;;;;;4902516;29;20070;-68
2023/01/30 12:30:24;;;;;;;4.18;2.42;;;5.10;85.90;;;;;;4918886;29;20418;-68
2023/01/30 12:32:54;;;;;;;6.57;2.50;;;5.00;86.60;;;;;;4919313;29;20029;-68
2023/01/30 12:35:28;;;;;;;4.65;2.72;;;4.80;89.50;;;;;;4902273;29;20039;-69
2023/01/30 12:38:19;;;;;;;6.80;3.13;;;4.80;90.80;;;;;;4919561;29;20032;-68
2023/01/30 12:41:00;;;;;;;9.88;3.85;;;4.80;92.00;;;;;;4897354;29;20074;-68
2023/01/30 12:43:51;;;;;;;5.90;3.15;;;4.70;92.40;;;;;;4919766;29;20355;-68
2023/01/30 12:46:39;;;;;;;7.07;3.78;;;4.60;92.80;;;;;;4902597;29;20394;-68
2023/01/30 12:49:21;;;;;;;6.22;3.50;;;4.50;93.60;;;;;;4902227;29;20411;-68
2023/01/30 12:52:00;;;;;;;8.13;3.70;;;4.40;94.50;;;;;;4900585;29;20600;-68
2023/01/30 12:55:07;;;;;;;6.40;3.35;;;4.30;94.80;;;;;;4918527;29;20080;-68
2023/01/30 12:57:51;;;;;;;9.43;3.85;;;4.30;96.00;;;;;;4903489;29;20495;-68
2023/01/30 13:00:41;;;;;;;11.73;4.28;;;4.20;97.60;;;;;;4908023;29;20084;-68
2023/01/30 13:03:34;;;;;;;8.93;3.65;;;4.10;99.10;;;;;;4937234;29;20439;-68
2023/01/30 13:06:09;;;;;;;11.43;3.70;;;4.10;99.90;;;;;;4937525;29;20042;-69
2023/01/30 13:08:59;;;;;;;8.02;3.67;;;4.10;99.90;;;;;;4920094;29;20055;-68